Time;durP1;ratioP1;P1;durP2;ratioP2;P2;SDS_P1;SDS_P2;PMS_P1;PMS_P2;Temp;Humidity;BMP_temperature;BMP_pressure;BME280_temperature;BME280_humidity;BME280_pressure;Samples;Min_cycle;Max_cycle;Signal;HPM_P1;HPM_P2
2022/05/25 00:01:49;;;;;;;4.13;2.50;;;;;;;12.06;75.50;100680.50;5078930;28;20019;-81
2022/05/25 00:04:15;;;;;;;2.67;2.47;;;;;;;12.04;76.00;100682.28;5078772;28;20493;-81
2022/05/25 00:06:41;;;;;;;4.07;2.35;;;;;;;12.05;75.79;100684.00;5078745;28;20062;-81
2022/05/25 00:09:07;;;;;;;2.58;2.38;;;;;;;11.99;76.70;100685.84;5078490;28;20024;-81
2022/05/25 00:11:32;;;;;;;2.60;2.50;;;;;;;11.98;76.00;100686.78;5078775;28;20023;-80
2022/05/25 00:13:57;;;;;;;2.80;2.70;;;;;;;11.96;76.39;100695.56;5078434;28;20024;-81
2022/05/25 00:16:23;;;;;;;2.80;2.70;;;;;;;11.95;76.61;100693.81;5079162;28;20030;-81
2022/05/25 00:21:32;;;;;;;2.88;2.75;;;;;;;11.95;76.49;100699.91;5098885;28;20031;-81
2022/05/25 00:23:58;;;;;;;3.03;2.75;;;;;;;11.94;77.24;100700.81;5078576;28;20023;-81
2022/05/25 00:26:24;;;;;;;3.47;2.75;;;;;;;11.96;76.59;100706.88;5078884;28;20581;-82
2022/05/25 00:28:50;;;;;;;3.00;2.85;;;;;;;11.94;77.72;100708.69;5095695;28;20022;-82
2022/05/25 00:31:15;;;;;;;2.67;2.58;;;;;;;11.94;77.70;100713.91;5078898;28;20027;-81
2022/05/25 00:33:41;;;;;;;3.00;2.90;;;;;;;11.91;77.97;100713.91;5079033;28;20031;-81
2022/05/25 00:36:06;;;;;;;3.03;2.83;;;;;;;11.91;77.29;100716.53;5079345;28;20094;-81
2022/05/25 00:38:32;;;;;;;2.95;2.85;;;;;;;11.92;77.58;100718.28;5077904;28;20494;-81
2022/05/25 00:40:57;;;;;;;3.30;3.20;;;;;;;11.92;77.12;100720.88;5079009;28;20038;-81
2022/05/25 00:43:23;;;;;;;3.25;3.05;;;;;;;11.91;78.22;100724.38;5078617;28;20027;-80
2022/05/25 00:46:05;;;;;;;5.22;2.83;;;;;;;11.89;77.40;100720.09;5078904;28;20051;-81
2022/05/25 00:48:33;;;;;;;3.17;3.00;;;;;;;11.91;77.17;100720.94;5078743;28;20028;-81
2022/05/25 00:51:13;;;;;;;3.20;3.00;;;;;;;11.91;77.33;100729.63;5095752;28;20019;-81
2022/05/25 00:54:11;;;;;;;3.50;3.17;;;;;;;11.88;77.24;100723.63;5080122;28;20106;-81
2022/05/25 00:56:41;;;;;;;3.03;2.92;;;;;;;11.86;76.98;100722.78;5095024;28;20042;-81
2022/05/25 00:59:15;;;;;;;5.00;3.38;;;;;;;11.86;78.09;100733.25;5078741;28;20031;-81
2022/05/25 01:01:42;;;;;;;2.87;2.77;;;;;;;11.84;78.08;100722.81;5079433;28;20035;-81
2022/05/25 01:04:08;;;;;;;3.22;3.03;;;;;;;11.83;77.79;100727.19;5078966;28;20085;-81
2022/05/25 01:06:50;;;;;;;3.28;3.08;;;;;;;11.82;78.97;100729.81;5095488;28;20094;-81
2022/05/25 01:09:42;;;;;;;3.03;2.90;;;;;;;11.81;78.08;100731.59;5095554;28;20553;-81
2022/05/25 01:12:49;;;;;;;3.05;2.85;;;;;;;11.79;78.26;100732.50;5078867;28;20485;-81
2022/05/25 01:15:37;;;;;;;3.63;2.60;;;;;;;11.77;77.89;100729.06;5074916;28;20035;-81
2022/05/25 01:18:20;;;;;;;2.85;2.75;;;;;;;11.77;78.12;100734.31;5079047;28;20059;-81
2022/05/25 01:20:48;;;;;;;3.45;3.25;;;;;;;11.74;78.21;100748.31;5078559;28;20081;-81
2022/05/25 01:23:44;;;;;;;3.30;3.03;;;;;;;11.72;78.50;100749.22;5078019;28;20111;-80
2022/05/25 01:26:33;;;;;;;3.60;3.35;;;;;;;11.67;79.13;100750.19;5113782;28;20054;-81
2022/05/25 01:29:01;;;;;;;3.80;3.60;;;;;;;11.69;78.39;100754.53;5095681;28;20035;-81
2022/05/25 01:31:42;;;;;;;4.25;3.88;;;;;;;11.66;77.93;100758.91;5113941;28;20027;-82
2022/05/25 01:34:19;;;;;;;4.55;4.13;;;;;;;11.69;77.31;100749.31;5095480;28;20020;-81
2022/05/25 01:36:55;;;;;;;4.47;4.00;;;;;;;11.65;78.14;100746.72;5078448;28;20053;-81
2022/05/25 01:39:27;;;;;;;3.90;3.70;;;;;;;11.67;77.75;100750.19;5078727;28;20047;-81
2022/05/25 01:42:07;;;;;;;3.97;3.67;;;;;;;11.70;77.58;100745.78;5095404;28;20083;-81
2022/05/25 01:44:40;;;;;;;3.17;2.97;;;;;;;11.69;77.58;100741.44;5078809;28;20024;-81
2022/05/25 01:47:09;;;;;;;3.63;3.42;;;;;;;11.70;77.57;100751.88;5078559;28;20022;-81
2022/05/25 01:49:48;;;;;;;3.95;3.60;;;;;;;11.70;77.59;100751.00;5079297;28;20019;-81
2022/05/25 01:52:16;;;;;;;3.42;3.22;;;;;;;11.70;78.17;100757.13;5082340;28;20027;-81
2022/05/25 01:54:48;;;;;;;3.75;3.55;;;;;;;11.69;77.29;100759.78;5081120;28;20031;-81
2022/05/25 01:57:15;;;;;;;3.30;3.10;;;;;;;11.70;76.83;100762.34;5081766;28;20450;-81
2022/05/25 01:59:42;;;;;;;3.58;3.38;;;;;;;11.69;76.80;100759.78;5081689;28;20023;-81
2022/05/25 02:04:54;;;;;;;4.22;3.92;;;;;;;11.68;77.27;100758.88;5101393;28;20041;-81
2022/05/25 02:08:00;;;;;;;3.75;3.53;;;;;;;11.66;76.57;100765.91;5099018;28;20480;-81
2022/05/25 02:10:39;;;;;;;3.72;3.53;;;;;;;11.64;77.23;100760.72;5098231;28;20043;-81
2022/05/25 02:13:23;;;;;;;3.40;3.20;;;;;;;11.66;76.26;100756.31;5081367;28;20118;-81
2022/05/25 02:16:11;;;;;;;3.70;3.40;;;;;;;11.70;77.42;100762.34;5098559;28;20031;-81
2022/05/25 02:18:36;;;;;;;3.72;3.45;;;;;;;11.70;76.97;100762.34;5098591;28;20111;-81
2022/05/25 02:21:06;;;;;;;3.95;3.72;;;;;;;11.71;76.89;100764.09;5098441;28;20055;-81
2022/05/25 02:23:41;;;;;;;3.83;3.47;;;;;;;11.72;77.50;100764.94;5081101;28;20024;-81
2022/05/25 02:26:08;;;;;;;;;;;;;;;11.72;76.13;100759.69;5081678;28;20054;-81
2022/05/25 02:28:39;;;;;;;3.80;3.50;;;;;;;11.75;76.50;100762.25;5081321;28;19907;-82
2022/05/25 02:31:07;;;;;;;3.92;3.72;;;;;;;11.71;76.39;100758.84;5081592;28;20019;-81
2022/05/25 02:33:42;;;;;;;4.78;4.57;;;;;;;11.70;77.32;100758.84;5080967;28;20026;-81
2022/05/25 02:36:09;;;;;;;4.18;3.97;;;;;;;11.67;77.22;100754.56;5080691;28;20023;-82
2022/05/25 02:38:41;;;;;;;5.38;4.97;;;;;;;11.65;77.21;100754.56;5081088;28;20023;-81
2022/05/25 02:41:10;;;;;;;4.55;4.15;;;;;;;11.70;77.41;100753.63;5081039;28;20024;-81
2022/05/25 02:43:36;;;;;;;4.60;4.30;;;;;;;11.66;78.23;100758.91;5098029;28;20034;-80
2022/05/25 02:46:03;;;;;;;4.22;4.03;;;;;;;11.69;76.61;100762.38;5079921;28;20051;-81
2022/05/25 02:48:28;;;;;;;4.60;4.30;;;;;;;11.66;76.75;100764.16;5080792;28;20497;-81
2022/05/25 02:50:53;;;;;;;4.95;4.65;;;;;;;11.64;77.81;100752.88;5080865;28;20051;-81
2022/05/25 02:53:20;;;;;;;4.55;4.18;;;;;;;11.63;77.32;100763.34;5081506;28;20389;-81
2022/05/25 02:55:45;;;;;;;5.07;4.70;;;;;;;11.62;78.46;100761.63;5082036;28;20023;-82
2022/05/25 02:58:11;;;;;;;4.95;4.60;;;;;;;11.63;76.92;100761.59;5081262;28;20461;-81
2022/05/25 03:00:36;;;;;;;4.93;4.55;;;;;;;11.59;78.05;100767.78;5098122;28;20024;-81
2022/05/25 03:03:02;;;;;;;5.53;5.10;;;;;;;11.56;77.85;100770.47;5080182;28;20054;-81
2022/05/25 03:05:27;;;;;;;5.18;4.88;;;;;;;11.53;78.64;100762.66;5081260;28;20019;-81
2022/05/25 03:07:52;;;;;;;4.97;4.68;;;;;;;11.53;78.73;100775.75;5082618;28;20084;-81
2022/05/25 03:10:18;;;;;;;4.80;4.50;;;;;;;11.54;77.87;100766.16;5083073;28;20106;-81
2022/05/25 03:12:43;;;;;;;5.25;4.95;;;;;;;11.53;78.14;100769.66;5083807;28;20049;-81
2022/05/25 03:15:09;;;;;;;5.63;5.32;;;;;;;11.51;78.04;100780.16;5081668;28;20477;-81
2022/05/25 03:17:34;;;;;;;5.65;5.35;;;;;;;11.46;77.95;100774.13;5081849;28;20030;-81
2022/05/25 03:20:00;;;;;;;5.45;5.05;;;;;;;11.44;78.44;100775.94;5081135;28;20023;-81
2022/05/25 03:22:26;;;;;;;5.18;4.72;;;;;;;11.42;79.12;100780.31;5081665;28;20024;-81
2022/05/25 03:24:51;;;;;;;6.22;5.82;;;;;;;11.42;78.68;100788.16;5080322;28;20023;-82
2022/05/25 03:27:17;;;;;;;5.55;5.25;;;;;;;11.41;79.34;100789.03;5081806;28;20027;-81
2022/05/25 03:29:43;;;;;;;6.45;6.05;;;;;;;11.40;79.21;100787.31;5081327;28;20024;-81
2022/05/25 03:32:09;;;;;;;6.43;5.90;;;;;;;11.40;78.33;100790.81;5098675;28;20016;-81
2022/05/25 03:34:34;;;;;;;6.28;5.82;;;;;;;11.37;79.29;100800.47;5082472;28;20064;-81
2022/05/25 03:37:00;;;;;;;6.18;5.72;;;;;;;11.36;79.57;100803.94;5082242;28;20096;-81
2022/05/25 03:39:26;;;;;;;6.43;6.13;;;;;;;11.33;78.91;100803.13;5085843;28;20019;-82
2022/05/25 03:41:56;;;;;;;6.50;6.10;;;;;;;11.33;79.59;100795.28;5083225;28;20022;-81
2022/05/25 03:44:22;;;;;;;6.15;5.75;;;;;;;11.32;80.01;100798.78;5081362;28;20024;-81
2022/05/25 03:46:51;;;;;;;6.22;5.85;;;;;;;11.30;79.93;100808.44;5082393;28;20119;-81
2022/05/25 03:49:16;;;;;;;6.45;6.05;;;;;;;11.32;79.32;100804.00;5082550;28;20049;-81
2022/05/25 03:51:43;;;;;;;6.28;5.88;;;;;;;11.32;79.15;100809.25;5080672;28;20031;-81
2022/05/25 03:54:08;;;;;;;6.53;6.13;;;;;;;11.29;79.30;100813.69;5080303;28;20031;-81
2022/05/25 03:56:34;;;;;;;6.45;5.95;;;;;;;11.28;79.71;100811.97;5097314;28;20023;-82
2022/05/25 03:58:59;;;;;;;6.63;6.22;;;;;;;11.28;80.10;100814.56;5080868;28;20058;-81
2022/05/25 04:01:25;;;;;;;6.45;6.00;;;;;;;11.28;79.76;100814.56;5080063;28;20477;-81
2022/05/25 04:03:50;;;;;;;7.13;6.72;;;;;;;11.28;80.94;100818.03;5080098;28;20369;-81
2022/05/25 04:06:15;;;;;;;6.10;5.60;;;;;;;11.28;80.54;100823.25;5081645;28;20024;-81
2022/05/25 04:08:41;;;;;;;6.40;6.00;;;;;;;11.28;80.47;100823.25;5080641;28;20015;-81
2022/05/25 04:11:06;;;;;;;6.63;6.22;;;;;;;11.30;80.48;100821.50;5080023;28;20065;-81
2022/05/25 04:13:31;;;;;;;6.43;5.93;;;;;;;11.31;81.04;100819.75;5079637;28;20110;-80
2022/05/25 04:15:57;;;;;;;6.30;5.93;;;;;;;11.29;80.01;100817.16;5081330;28;20279;-80
2022/05/25 04:18:22;;;;;;;5.53;5.22;;;;;;;11.29;80.64;100814.53;5079625;28;20034;-80
2022/05/25 04:20:47;;;;;;;6.38;6.00;;;;;;;11.30;80.61;100816.28;5079679;28;20019;-80
2022/05/25 04:23:13;;;;;;;7.35;6.72;;;;;;;11.32;80.96;100819.72;5079325;28;20126;-80
2022/05/25 04:25:40;;;;;;;6.82;6.18;;;;;;;11.28;80.94;100825.88;5079425;28;20020;-81
2022/05/25 04:28:06;;;;;;;6.30;5.90;;;;;;;11.30;80.24;100836.31;5114916;28;20030;-80
2022/05/25 04:30:31;;;;;;;6.88;6.38;;;;;;;11.31;80.57;100833.66;5079089;28;20020;-80
2022/05/25 04:32:57;;;;;;;6.80;6.40;;;;;;;11.32;80.90;100837.16;5080247;28;20118;-80
2022/05/25 04:35:23;;;;;;;6.65;6.25;;;;;;;11.31;80.04;100838.91;5079504;28;20401;-81
2022/05/25 04:37:49;;;;;;;7.10;6.60;;;;;;;11.32;80.00;100837.16;5079106;28;20062;-80
2022/05/25 04:40:22;;;;;;;6.53;5.90;;;;;;;11.35;80.17;100838.88;5079424;28;20034;-81
2022/05/25 04:42:48;;;;;;;6.68;6.07;;;;;;;11.35;80.35;100834.50;5079548;28;20076;-81
2022/05/25 04:45:13;;;;;;;6.63;6.22;;;;;;;11.38;80.71;100831.81;5079919;28;20027;-81
2022/05/25 04:47:40;;;;;;;5.82;5.32;;;;;;;11.42;79.57;100837.88;5079600;28;20024;-81
2022/05/25 04:50:08;;;;;;;6.50;6.10;;;;;;;11.43;80.34;100832.59;5080042;28;20016;-80
2022/05/25 04:52:37;;;;;;;6.18;5.78;;;;;;;11.45;79.93;100840.41;5079171;28;20034;-81
2022/05/25 04:55:05;;;;;;;5.45;5.13;;;;;;;11.46;80.65;100842.16;5079405;28;20023;-82
2022/05/25 04:57:31;;;;;;;6.20;5.57;;;;;;;11.49;80.13;100839.47;5079420;28;20096;-80
2022/05/25 04:59:59;;;;;;;5.90;5.57;;;;;;;11.48;80.10;100848.22;5079700;28;20028;-81
2022/05/25 05:02:25;;;;;;;6.38;5.80;;;;;;;11.49;79.51;100847.31;5079390;28;20035;-79
2022/05/25 05:04:50;;;;;;;5.65;5.35;;;;;;;11.50;78.92;100849.91;5079505;28;20026;-79
2022/05/25 05:07:16;;;;;;;5.45;5.13;;;;;;;11.52;79.28;100843.78;5096581;28;20019;-80
2022/05/25 05:09:44;;;;;;;5.47;5.18;;;;;;;11.55;79.34;100852.47;5097264;28;20015;-79
2022/05/25 05:12:10;;;;;;;5.63;5.22;;;;;;;11.59;80.06;100848.91;5079461;28;20542;-79
2022/05/25 05:14:36;;;;;;;5.65;5.22;;;;;;;11.59;78.68;100861.97;5078952;28;20034;-79
2022/05/25 05:17:04;;;;;;;5.63;5.28;;;;;;;11.63;79.16;100865.38;5079126;28;20027;-80
2022/05/25 05:19:29;;;;;;;5.60;5.20;;;;;;;11.65;79.12;100854.00;5079870;28;20016;-80
2022/05/25 05:21:57;;;;;;;5.32;4.93;;;;;;;11.65;78.33;100864.47;5079633;28;20384;-79
2022/05/25 05:24:26;;;;;;;4.97;4.68;;;;;;;11.70;79.32;100861.78;5079508;28;20019;-80
2022/05/25 05:26:51;;;;;;;5.60;5.30;;;;;;;11.73;78.93;100868.72;5083286;28;20015;-79
2022/05/25 05:29:17;;;;;;;5.25;4.80;;;;;;;11.76;79.03;100871.28;5083573;28;20015;-79
2022/05/25 05:31:42;;;;;;;5.45;5.03;;;;;;;11.78;78.75;100872.09;5100747;28;20397;-79
2022/05/25 05:34:08;;;;;;;5.82;5.32;;;;;;;11.81;78.02;100870.28;5083195;28;20020;-78
2022/05/25 05:36:36;;;;;;;6.00;5.50;;;;;;;11.82;78.11;100871.13;5083401;28;20122;-78
2022/05/25 05:39:04;;;;;;;5.78;5.47;;;;;;;11.83;78.14;100870.25;5083361;28;20473;-79
2022/05/25 05:41:35;;;;;;;5.45;5.15;;;;;;;11.86;78.86;100877.19;5100483;28;20023;-78
2022/05/25 05:44:02;;;;;;;5.43;5.13;;;;;;;11.90;79.01;100881.47;5083130;28;20056;-79
2022/05/25 05:46:28;;;;;;;5.10;4.80;;;;;;;11.93;77.53;100884.91;5099813;28;20073;-78
2022/05/25 05:48:54;;;;;;;5.32;5.03;;;;;;;11.95;77.40;100885.75;5099889;28;20031;-79
2022/05/25 05:51:19;;;;;;;5.18;4.68;;;;;;;11.97;77.46;100876.13;5083057;28;20019;-80
2022/05/25 05:53:45;;;;;;;5.15;4.57;;;;;;;12.01;77.51;100879.53;5082862;28;20118;-79
2022/05/25 05:56:11;;;;;;;5.45;4.95;;;;;;;12.04;77.19;100881.25;5082719;28;20088;-79
2022/05/25 05:58:36;;;;;;;4.80;4.50;;;;;;;12.06;77.85;100880.31;5082490;28;20024;-79
2022/05/25 06:01:02;;;;;;;5.82;4.32;;;;;;;12.10;77.41;100886.38;5100907;28;20060;-79
2022/05/25 06:03:28;;;;;;;3.97;3.75;;;;;;;12.14;77.60;100882.81;5082751;28;20034;-79
2022/05/25 06:05:53;;;;;;;4.43;3.90;;;;;;;12.18;77.02;100884.47;5082588;28;20027;-79
2022/05/25 06:08:23;;;;;;;4.32;3.92;;;;;;;12.18;75.82;100874.00;5099496;28;20019;-78
2022/05/25 06:10:48;;;;;;;3.88;3.67;;;;;;;12.21;75.93;100883.53;5083060;28;20094;-78
2022/05/25 06:13:13;;;;;;;3.95;3.65;;;;;;;12.23;75.94;100879.13;5082199;28;20027;-79
2022/05/25 06:21:23;;;;;;;3.78;3.47;;;;;;;12.36;76.15;100888.47;5102675;28;20123;-79
2022/05/25 06:23:49;;;;;;;3.75;3.50;;;;;;;12.41;75.18;100885.78;5082132;28;20051;-79
2022/05/25 06:26:15;;;;;;;4.38;3.53;;;;;;;12.41;75.11;100891.00;5099560;28;20019;-79
2022/05/25 06:28:42;;;;;;;3.83;3.53;;;;;;;12.44;74.66;100888.31;5082246;28;20485;-79
2022/05/25 06:31:07;;;;;;;3.47;3.28;;;;;;;12.46;73.40;100894.38;5082669;28;20035;-79
2022/05/25 06:33:33;;;;;;;3.20;3.00;;;;;;;12.49;72.81;100889.94;5081947;28;20436;-79
2022/05/25 06:36:12;;;;;;;3.55;3.25;;;;;;;12.53;72.96;100901.22;5082320;28;20504;-79
2022/05/25 06:38:38;;;;;;;3.83;3.53;;;;;;;12.54;72.85;100897.69;5081933;28;20119;-79
2022/05/25 06:41:03;;;;;;;4.13;3.72;;;;;;;12.56;72.78;100898.53;5082786;28;20535;-78
2022/05/25 06:43:28;;;;;;;3.50;3.30;;;;;;;12.57;71.09;100900.28;5082369;28;20028;-79
2022/05/25 06:45:54;;;;;;;3.20;3.00;;;;;;;12.62;71.31;100897.53;5099399;28;20098;-79
2022/05/25 06:48:19;;;;;;;3.50;3.20;;;;;;;12.67;71.64;100893.06;5081851;28;20393;-79
2022/05/25 06:50:46;;;;;;;2.70;2.50;;;;;;;12.68;71.65;100898.28;5100164;28;20069;-79
2022/05/25 06:53:12;;;;;;;3.15;2.85;;;;;;;12.75;69.87;100899.00;5089088;28;20027;-81
2022/05/25 06:55:37;;;;;;;2.83;2.63;;;;;;;12.77;68.15;100898.97;5082334;28;20031;-80
2022/05/25 06:58:03;;;;;;;2.20;2.10;;;;;;;12.78;68.49;100901.53;5100087;28;20027;-81
2022/05/25 07:00:28;;;;;;;2.45;1.85;;;;;;;12.82;68.56;100902.34;5083678;28;20019;-82
2022/05/25 07:02:53;;;;;;;2.53;2.38;;;;;;;12.85;68.96;100905.75;5098296;28;20036;-82
2022/05/25 07:05:19;;;;;;;3.13;2.75;;;;;;;12.89;68.34;100903.94;5081155;28;20044;-82
2022/05/25 07:07:44;;;;;;;2.45;2.25;;;;;;;12.93;66.25;100899.50;5098152;28;20019;-81
2022/05/25 07:10:10;;;;;;;2.88;2.13;;;;;;;12.96;67.60;100900.25;5081412;28;20026;-82
2022/05/25 07:12:35;;;;;;;2.83;2.63;;;;;;;12.96;68.32;100908.13;5081901;28;20384;-82
2022/05/25 07:15:00;;;;;;;2.45;2.25;;;;;;;13.00;68.95;100901.91;5081087;28;20668;-83
2022/05/25 07:17:26;;;;;;;2.38;2.28;;;;;;;13.07;67.24;100910.50;5081222;28;20436;-82
2022/05/25 07:19:51;;;;;;;2.15;2.05;;;;;;;13.12;67.43;100902.56;5080931;28;20028;-82
2022/05/25 07:22:17;;;;;;;3.03;2.83;;;;;;;13.18;66.28;100907.63;5080719;28;20019;-83
2022/05/25 07:24:42;;;;;;;2.50;2.40;;;;;;;13.19;67.77;100914.63;5080958;28;20055;-83
2022/05/25 07:27:07;;;;;;;2.58;2.38;;;;;;;13.25;65.85;100910.97;5080829;28;20030;-83
2022/05/25 07:29:33;;;;;;;2.65;2.20;;;;;;;13.27;65.42;100928.41;5081123;28;20024;-83
2022/05/25 07:32:02;;;;;;;3.08;2.70;;;;;;;13.29;65.61;100937.13;5081464;28;20031;-83
2022/05/25 07:34:34;;;;;;;3.42;3.10;;;;;;;13.38;64.99;100920.31;5083610;28;20080;-82
2022/05/25 07:37:12;;;;;;;3.35;3.15;;;;;;;13.50;64.90;100929.66;5081407;28;20031;-83
2022/05/25 07:39:58;;;;;;;3.60;3.20;;;;;;;13.58;65.50;100932.97;5068349;28;20016;-83
2022/05/25 07:42:24;;;;;;;3.72;3.53;;;;;;;13.59;63.93;100937.28;5060532;28;20059;-82
2022/05/25 07:44:55;;;;;;;3.50;3.30;;;;;;;13.60;64.51;100931.13;5090684;28;20388;-82
2022/05/25 07:47:20;;;;;;;4.03;3.83;;;;;;;13.62;64.99;100934.59;5079385;28;20487;-82
2022/05/25 07:49:45;;;;;;;3.72;3.42;;;;;;;13.66;64.33;100925.75;5096815;28;20020;-82
2022/05/25 07:52:11;;;;;;;4.03;3.72;;;;;;;13.77;64.34;100924.59;5096567;28;20277;-82
2022/05/25 07:54:40;;;;;;;3.65;3.38;;;;;;;13.84;64.84;100927.03;5080399;28;20028;-83
2022/05/25 07:57:05;;;;;;;3.80;3.47;;;;;;;13.92;64.52;100918.97;5081398;28;20020;-82
2022/05/25 07:59:30;;;;;;;3.08;2.88;;;;;;;13.94;64.42;100917.13;5081975;28;20034;-81
2022/05/25 08:07:33;;;;;;;2.40;2.20;;;;;;;14.08;65.00;100914.13;5097669;28;20027;-83
2022/05/25 08:10:07;;;;;;;2.75;2.58;;;;;;;14.15;63.24;100925.34;5080114;28;20023;-83
2022/05/25 08:12:35;;;;;;;2.80;2.70;;;;;;;14.19;63.03;100913.84;5079824;28;20020;-83
2022/05/25 08:15:00;;;;;;;4.55;2.75;;;;;;;14.19;62.77;100921.72;5079216;28;20016;-83
2022/05/25 08:17:26;;;;;;;2.40;2.30;;;;;;;14.24;62.78;100927.72;5096742;28;20024;-82
2022/05/25 08:19:51;;;;;;;2.70;2.60;;;;;;;14.30;61.80;100924.94;5079201;28;20103;-83
2022/05/25 08:22:16;;;;;;;1.90;1.73;;;;;;;14.33;61.74;100914.34;5096432;28;20027;-83
2022/05/25 08:24:43;;;;;;;2.30;2.20;;;;;;;14.35;61.89;100912.50;5088126;28;20020;-82
2022/05/25 08:27:08;;;;;;;2.28;2.08;;;;;;;14.34;61.94;100916.06;5079228;28;20110;-82
2022/05/25 08:29:33;;;;;;;2.33;1.90;;;;;;;14.32;60.28;100917.84;5080141;28;20051;-82
2022/05/25 08:31:59;;;;;;;1.60;1.50;;;;;;;14.30;60.95;100919.69;5079940;28;20073;-83
2022/05/25 08:34:26;;;;;;;3.80;2.17;;;;;;;14.28;61.62;100924.09;5080383;28;20023;-82
2022/05/25 08:36:52;;;;;;;1.70;1.60;;;;;;;14.28;61.81;100918.00;5080314;28;20122;-83
2022/05/25 08:39:17;;;;;;;2.10;1.85;;;;;;;14.30;62.71;100924.06;5081137;28;20058;-83
2022/05/25 08:41:44;;;;;;;4.22;1.90;;;;;;;14.33;61.95;100924.84;5082894;28;20095;-83
2022/05/25 08:44:10;;;;;;;2.47;1.65;;;;;;;14.41;61.24;100916.75;5082553;28;20034;-83
2022/05/25 08:46:36;;;;;;;2.78;1.95;;;;;;;14.48;60.32;100917.41;5079553;28;20028;-82
2022/05/25 08:49:06;;;;;;;2.83;1.70;;;;;;;14.53;59.47;100931.28;5081348;28;20393;-82
2022/05/25 08:51:33;;;;;;;1.95;1.85;;;;;;;14.56;58.60;100920.72;5097615;28;20016;-84
2022/05/25 08:54:00;;;;;;;2.20;2.00;;;;;;;14.54;58.35;100923.34;5078628;28;20046;-82
2022/05/25 08:56:49;;;;;;;3.28;1.90;;;;;;;14.57;58.62;100921.56;5079330;28;20023;-82
2022/05/25 08:59:22;;;;;;;2.72;2.40;;;;;;;14.65;58.72;100904.66;5079537;28;20441;-82
2022/05/25 09:01:48;;;;;;;2.10;2.00;;;;;;;14.65;58.84;100920.44;5083453;28;20035;-82
2022/05/25 09:04:41;;;;;;;2.60;2.40;;;;;;;14.64;58.62;100904.72;5100701;28;20066;-83
2022/05/25 09:07:45;;;;;;;2.38;2.28;;;;;;;14.72;57.28;100915.00;5101079;28;20061;-82
2022/05/25 09:10:12;;;;;;;2.72;2.53;;;;;;;14.86;56.18;100918.06;5073508;28;20540;-83
2022/05/25 09:12:42;;;;;;;2.47;2.28;;;;;;;14.95;57.87;100911.69;5074138;28;20019;-82
2022/05/25 09:15:13;;;;;;;2.40;2.30;;;;;;;15.02;57.60;100924.59;5084365;28;20080;-82
2022/05/25 09:17:58;;;;;;;1.95;1.85;;;;;;;15.13;56.80;100920.75;5083440;28;20110;-82
2022/05/25 09:20:29;;;;;;;1.90;1.80;;;;;;;15.18;55.20;100913.59;5083009;28;20603;-82
2022/05/25 09:22:56;;;;;;;3.20;2.10;;;;;;;15.25;53.38;100909.00;5100102;28;20027;-83
2022/05/25 09:25:21;;;;;;;1.60;1.50;;;;;;;15.26;54.53;100911.56;5083132;28;20043;-82
2022/05/25 09:28:07;;;;;;;2.50;2.40;;;;;;;15.28;54.00;100914.16;5082869;28;20034;-82
2022/05/25 09:30:36;;;;;;;1.63;1.50;;;;;;;15.30;54.08;100915.81;5082910;28;20469;-82
2022/05/25 09:33:06;;;;;;;1.58;1.50;;;;;;;15.34;55.59;100909.56;5082866;28;20027;-83
2022/05/25 09:35:37;;;;;;;1.83;1.65;;;;;;;15.40;54.29;100923.44;5098858;28;20030;-83
2022/05/25 09:38:04;;;;;;;1.88;1.77;;;;;;;15.48;54.37;100916.13;5083397;28;20016;-83
2022/05/25 09:40:50;;;;;;;1.80;1.70;;;;;;;15.58;54.51;100912.28;5082718;28;20027;-82
2022/05/25 09:43:22;;;;;;;1.27;1.27;;;;;;;15.60;56.43;100918.34;5082122;28;20524;-82
2022/05/25 09:45:53;;;;;;;1.92;1.83;;;;;;;15.63;54.72;100926.16;5099551;28;20115;-82
2022/05/25 09:48:28;;;;;;;2.65;2.17;;;;;;;15.58;54.35;100922.81;5082218;28;20477;-82
2022/05/25 09:51:32;;;;;;;1.70;1.65;;;;;;;15.49;53.64;100923.13;5118499;28;20107;-82
2022/05/25 09:54:10;;;;;;;1.48;1.48;;;;;;;15.37;55.49;100924.38;5099861;28;20388;-82
2022/05/25 09:56:38;;;;;;;1.25;1.20;;;;;;;15.38;55.64;100921.69;5082535;28;20477;-82
2022/05/25 09:59:13;;;;;;;1.23;1.20;;;;;;;15.53;54.53;100924.75;5082482;28;20055;-82
2022/05/25 10:01:44;;;;;;;0.70;0.70;;;;;;;15.69;54.16;100917.19;5082513;28;20031;-82
2022/05/25 10:04:14;;;;;;;1.02;0.90;;;;;;;15.82;53.67;100929.06;5098674;28;20116;-82
2022/05/25 10:06:52;;;;;;;1.30;1.20;;;;;;;15.87;52.97;100928.91;5082132;28;20016;-82
2022/05/25 10:09:27;;;;;;;1.10;1.10;;;;;;;15.90;52.77;100918.25;5081682;28;20503;-83
2022/05/25 10:11:55;;;;;;;;;;;;;;;15.97;52.07;100918.91;5082772;28;20077;-82
2022/05/25 10:14:24;;;;;;;1.00;1.00;;;;;;;16.09;52.40;100923.75;5099556;28;19907;-81
2022/05/25 10:16:50;;;;;;;1.27;1.17;;;;;;;16.18;52.63;100909.38;5099845;28;20388;-83
2022/05/25 10:19:18;;;;;;;0.98;0.98;;;;;;;16.25;51.18;100910.84;5081839;28;20469;-82
2022/05/25 10:21:58;;;;;;;1.00;0.90;;;;;;;16.25;52.02;100918.75;5082726;28;20069;-82
2022/05/25 10:24:41;;;;;;;1.10;1.00;;;;;;;16.22;52.91;100913.59;5082571;28;20401;-82
2022/05/25 10:27:23;;;;;;;0.90;0.90;;;;;;;16.20;54.07;100915.44;5082580;28;20052;-83
2022/05/25 10:38:27;;;;;;;0.90;0.90;;;;;;;16.12;51.54;100904.31;5099789;28;20026;-85
2022/05/25 10:40:54;;;;;;;0.93;0.93;;;;;;;16.12;51.93;100920.13;5080466;28;20024;-85
2022/05/25 10:43:28;;;;;;;1.92;0.90;;;;;;;16.11;50.58;100915.78;5080061;28;20100;-85
2022/05/25 10:45:54;;;;;;;0.98;0.90;;;;;;;16.15;50.25;100917.38;5079674;28;20039;-85
2022/05/25 10:49:06;;;;;;;0.95;0.95;;;;;;;16.20;50.61;100915.44;5079892;28;20031;-85
2022/05/25 10:51:54;;;;;;;1.77;1.00;;;;;;;16.25;50.06;100916.13;5083727;28;20031;-86
2022/05/25 10:54:45;;;;;;;2.78;1.13;;;;;;;16.28;50.31;100929.22;5079342;28;20035;-85
2022/05/25 10:57:32;;;;;;;1.02;0.88;;;;;;;16.33;49.33;100906.19;5080764;28;20028;-85
2022/05/25 11:00:08;;;;;;;1.27;0.93;;;;;;;16.36;50.93;100916.59;5096440;28;20068;-85
2022/05/25 11:02:42;;;;;;;0.75;0.75;;;;;;;16.40;50.02;100917.34;5079574;28;20035;-85
2022/05/25 11:05:09;;;;;;;0.93;0.52;;;;;;;16.50;50.50;100910.81;5079565;28;20023;-85
2022/05/25 11:07:39;;;;;;;0.95;0.63;;;;;;;16.65;49.05;100900.63;5078995;28;20461;-86
2022/05/25 11:10:23;;;;;;;0.80;0.75;;;;;;;16.87;48.20;100905.91;5079646;28;20054;-85
2022/05/25 11:12:59;;;;;;;0.80;0.80;;;;;;;17.03;48.67;100909.69;5096183;28;20058;-85
2022/05/25 11:15:32;;;;;;;0.60;0.60;;;;;;;17.18;48.71;100913.50;5096014;28;20516;-85
2022/05/25 11:18:09;;;;;;;0.80;0.60;;;;;;;17.26;48.77;100907.03;5079276;28;20045;-85
2022/05/25 11:20:38;;;;;;;0.68;0.68;;;;;;;17.27;47.05;100903.50;5079450;28;20449;-84
2022/05/25 11:23:25;;;;;;;1.83;0.85;;;;;;;17.16;47.40;100906.56;5112582;28;20028;-85
2022/05/25 11:25:59;;;;;;;1.05;0.80;;;;;;;16.98;48.90;100913.44;5095604;28;20042;-85
2022/05/25 11:28:37;;;;;;;1.65;0.70;;;;;;;16.86;47.97;100910.31;5093549;28;20024;-84
2022/05/25 11:31:39;;;;;;;1.02;0.90;;;;;;;16.68;48.38;100905.75;5095435;28;20027;-85
2022/05/25 11:34:14;;;;;;;1.27;0.63;;;;;;;16.55;48.51;100911.50;5095408;28;20031;-85
2022/05/25 11:36:39;;;;;;;;;;;;;;;16.55;49.87;100905.34;5096007;28;20118;-85
2022/05/25 11:39:08;;;;;;;0.70;0.60;;;;;;;16.64;49.14;100905.00;5095607;28;20029;-85
2022/05/25 11:41:53;;;;;;;1.90;1.15;;;;;;;16.81;47.81;100903.50;5083949;28;20028;-83
2022/05/25 11:44:40;;;;;;;0.90;0.90;;;;;;;16.88;49.01;100899.72;5060500;28;20161;-83
2022/05/25 11:47:35;;;;;;;0.98;0.88;;;;;;;17.03;48.81;100901.78;5077263;28;20122;-83
2022/05/25 11:50:33;;;;;;;1.23;0.80;;;;;;;17.24;48.82;100891.28;5063496;27;20521;-83
2022/05/25 11:53:23;;;;;;;0.60;0.50;;;;;;;17.30;48.26;100898.94;5061862;27;20568;-82
2022/05/25 11:55:48;;;;;;;2.10;0.70;;;;;;;17.32;49.18;100891.81;5116729;27;20029;-83
2022/05/25 11:58:32;;;;;;;0.73;0.63;;;;;;;17.30;48.56;100882.22;5117237;27;20027;-83
2022/05/25 12:00:59;;;;;;;0.98;0.60;;;;;;;17.27;49.32;100892.94;5135089;27;20034;-83
2022/05/25 12:04:04;;;;;;;0.65;0.65;;;;;;;17.19;49.89;100886.19;5100374;27;20038;-83
2022/05/25 12:06:48;;;;;;;0.70;0.70;;;;;;;17.09;48.79;100884.84;5117785;27;20015;-83
2022/05/25 12:09:35;;;;;;;0.52;0.52;;;;;;;16.99;50.59;100894.91;5118946;27;20479;-83